createdAt,value
2017-08-01T00:00:19.530Z,20.91
2017-08-01T00:01:19.577Z,20.97
2017-08-01T00:02:19.593Z,20.97
2017-08-01T00:03:19.624Z,20.97
2017-08-01T00:04:19.680Z,20.97
2017-08-01T00:05:20.020Z,21.01
2017-08-01T00:06:19.761Z,21.06
2017-08-01T00:07:19.812Z,21.06
2017-08-01T00:08:19.816Z,21.01
2017-08-01T00:09:19.897Z,21.15
2017-08-01T00:10:19.894Z,21.23
2017-08-01T00:11:19.949Z,21.18
2017-08-01T00:12:19.984Z,21.23
2017-08-01T00:13:20.001Z,21.21
2017-08-01T00:14:20.041Z,21.23
2017-08-01T00:15:20.091Z,21.31
2017-08-01T00:16:20.118Z,21.27
2017-08-01T00:17:20.178Z,21.3
2017-08-01T00:18:20.218Z,21.22
2017-08-01T00:19:20.227Z,21.19
2017-08-01T00:20:20.263Z,21.18
2017-08-01T00:21:20.325Z,21.34
2017-08-01T00:22:20.533Z,21.28
2017-08-01T00:23:20.389Z,21.28
2017-08-01T00:24:20.419Z,21.15
2017-08-01T00:25:20.449Z,21.13
2017-08-01T00:26:20.508Z,21.19
2017-08-01T00:27:20.499Z,21.18
2017-08-01T00:28:20.578Z,21.16
2017-08-01T00:29:20.620Z,21.21
2017-08-01T00:30:20.742Z,21.21
2017-08-01T00:31:20.674Z,21.13
2017-08-01T00:32:20.705Z,21.06
2017-08-01T00:33:20.764Z,21.09
2017-08-01T00:34:20.794Z,21.09
2017-08-01T00:35:20.821Z,21.11
2017-08-01T00:36:20.868Z,21.09
2017-08-01T00:37:20.909Z,21.01
2017-08-01T00:38:20.933Z,20.98
2017-08-01T00:39:20.981Z,21.13
2017-08-01T00:40:20.985Z,21.01
2017-08-01T00:41:21.066Z,21.21
2017-08-01T00:42:21.102Z,21.18
2017-08-01T00:43:21.138Z,21.31
2017-08-01T00:44:21.176Z,21.28
2017-08-01T00:45:21.223Z,21.19
2017-08-01T00:46:21.228Z,21.21
2017-08-01T00:47:21.286Z,21.3
2017-08-01T00:48:21.322Z,21.4
2017-08-01T00:49:21.365Z,21.46
2017-08-01T00:50:21.393Z,21.45
2017-08-01T00:51:21.410Z,21.59
2017-08-01T00:52:21.466Z,21.56
2017-08-01T00:53:21.509Z,21.51
2017-08-01T00:54:21.530Z,21.53
2017-08-01T00:55:21.573Z,21.58
2017-08-01T00:56:21.602Z,21.58
2017-08-01T00:57:21.636Z,21.64
2017-08-01T00:58:21.690Z,21.7
2017-08-01T00:59:21.704Z,21.66
2017-08-01T01:00:21.746Z,21.68
2017-08-01T01:01:21.802Z,21.61
2017-08-01T01:02:21.815Z,21.74
2017-08-01T01:03:21.854Z,21.64
2017-08-01T01:04:21.966Z,21.76
2017-08-01T01:05:22.147Z,21.61
2017-08-01T01:06:21.996Z,21.64
2017-08-01T01:07:22.003Z,21.76
2017-08-01T01:08:22.057Z,21.68
2017-08-01T01:09:22.074Z,21.64
2017-08-01T01:10:22.093Z,21.74
2017-08-01T01:11:22.156Z,21.68
2017-08-01T01:12:22.202Z,21.68
2017-08-01T01:13:22.233Z,21.7
2017-08-01T01:14:22.284Z,21.56
2017-08-01T01:15:22.424Z,21.62
2017-08-01T01:16:22.358Z,21.58
2017-08-01T01:17:22.392Z,21.67
2017-08-01T01:18:22.457Z,21.62
2017-08-01T01:19:22.465Z,21.61
2017-08-01T01:20:22.761Z,21.61
2017-08-01T01:21:22.522Z,21.64
2017-08-01T01:22:22.535Z,21.62
2017-08-01T01:23:22.616Z,21.61
2017-08-01T01:24:22.614Z,21.61
2017-08-01T01:25:22.985Z,21.66
2017-08-01T01:26:22.725Z,21.59
2017-08-01T01:27:22.743Z,21.56
2017-08-01T01:28:22.784Z,21.53
2017-08-01T01:29:22.806Z,21.58
2017-08-01T01:30:22.889Z,21.48
2017-08-01T01:31:22.897Z,21.52
2017-08-01T01:32:22.944Z,21.45
2017-08-01T01:33:22.990Z,21.49
2017-08-01T01:34:23.031Z,21.34
2017-08-01T01:35:23.064Z,21.3
2017-08-01T01:36:23.091Z,21.27
2017-08-01T01:37:23.128Z,21.31
2017-08-01T01:38:23.177Z,21.25
2017-08-01T01:39:23.207Z,21.18
2017-08-01T01:40:23.244Z,21.03
2017-08-01T01:41:23.282Z,21.06
2017-08-01T01:42:23.323Z,21.08
2017-08-01T01:43:23.363Z,20.94
2017-08-01T01:44:23.392Z,20.93
2017-08-01T01:45:23.423Z,20.9
2017-08-01T01:46:23.470Z,20.83
2017-08-01T01:47:23.486Z,20.81
2017-08-01T01:48:23.525Z,20.82
2017-08-01T01:49:23.580Z,20.78
2017-08-01T01:50:23.617Z,20.71
2017-08-01T01:51:23.652Z,20.76
2017-08-01T01:52:23.669Z,20.74
2017-08-01T01:53:23.711Z,20.74
2017-08-01T01:54:23.772Z,20.76
2017-08-01T01:55:23.787Z,20.72
2017-08-01T01:56:23.841Z,20.74
2017-08-01T01:57:23.860Z,20.81
2017-08-01T01:58:23.899Z,20.79
2017-08-01T01:59:23.932Z,20.91
2017-08-01T02:00:23.994Z,20.9
2017-08-01T02:01:24.132Z,20.88
2017-08-01T02:02:24.164Z,20.9
2017-08-01T02:03:24.107Z,20.94
2017-08-01T02:04:24.453Z,21.01
2017-08-01T02:05:24.173Z,21.08
2017-08-01T02:06:24.308Z,21.15
2017-08-01T02:07:24.242Z,21.21
2017-08-01T02:08:24.281Z,21.18
2017-08-01T02:09:24.489Z,21.28
2017-08-01T02:10:24.359Z,21.27
2017-08-01T02:11:24.747Z,21.28
2017-08-01T02:12:24.415Z,21.28
2017-08-01T02:13:24.449Z,21.21
2017-08-01T02:14:24.543Z,21.34
2017-08-01T02:15:24.587Z,21.38
2017-08-01T02:16:24.535Z,21.28
2017-08-01T02:17:24.621Z,21.37
2017-08-01T02:18:24.638Z,21.25
2017-08-01T02:19:24.647Z,21.19
2017-08-01T02:20:24.736Z,21.16
2017-08-01T02:21:24.745Z,21.28
2017-08-01T02:22:24.797Z,21.28
2017-08-01T02:23:24.839Z,21.25
2017-08-01T02:24:24.872Z,21.25
2017-08-01T02:25:24.899Z,21.34
2017-08-01T02:26:24.920Z,21.28
2017-08-01T02:27:24.995Z,21.33
2017-08-01T02:28:25.025Z,21.33
2017-08-01T02:29:25.036Z,21.43
2017-08-01T02:30:25.099Z,21.38
2017-08-01T02:31:25.136Z,21.46
2017-08-01T02:32:25.169Z,21.4
2017-08-01T02:33:25.204Z,21.38
2017-08-01T02:34:25.242Z,21.37
2017-08-01T02:35:25.266Z,21.37
2017-08-01T02:36:25.317Z,21.45
2017-08-01T02:37:25.332Z,21.46
2017-08-01T02:38:25.391Z,21.38
2017-08-01T02:39:25.426Z,21.41
2017-08-01T02:40:25.448Z,21.51
2017-08-01T02:41:25.489Z,21.45
2017-08-01T02:42:25.540Z,21.52
2017-08-01T02:43:25.584Z,21.55
2017-08-01T02:44:25.610Z,21.55
2017-08-01T02:45:25.643Z,21.53
2017-08-01T02:46:25.689Z,21.58
2017-08-01T02:47:25.734Z,21.58
2017-08-01T02:48:25.760Z,21.58
2017-08-01T02:49:25.804Z,21.52
2017-08-01T02:50:25.837Z,21.56
2017-08-01T02:51:25.850Z,21.55
2017-08-01T02:52:25.905Z,21.48
2017-08-01T02:53:25.927Z,21.46
2017-08-01T02:54:25.984Z,21.45
2017-08-01T02:55:26.023Z,21.49
2017-08-01T02:56:26.077Z,21.46
2017-08-01T02:57:26.192Z,21.49
2017-08-01T02:58:26.108Z,21.55
2017-08-01T02:59:26.152Z,21.53
2017-08-01T03:00:26.208Z,21.59
2017-08-01T03:01:26.237Z,21.51
2017-08-01T03:02:26.424Z,21.53
2017-08-01T03:03:26.426Z,21.55
2017-08-01T03:04:31.030Z,21.56
2017-08-01T03:05:26.389Z,21.55
2017-08-01T03:06:26.417Z,21.48
2017-08-01T03:07:26.579Z,21.55
2017-08-01T03:08:26.496Z,21.58
2017-08-01T03:09:26.534Z,21.56
2017-08-01T03:10:26.569Z,21.49
2017-08-01T03:11:26.606Z,21.48
2017-08-01T03:12:26.639Z,21.45
2017-08-01T03:13:26.698Z,21.51
2017-08-01T03:14:26.724Z,21.41
2017-08-01T03:15:26.756Z,21.37
2017-08-01T03:16:26.801Z,21.33
2017-08-01T03:17:26.835Z,21.34
2017-08-01T03:18:26.852Z,21.25
2017-08-01T03:19:26.901Z,21.36
2017-08-01T03:20:26.941Z,21.33
2017-08-01T03:21:26.979Z,21.28
2017-08-01T03:22:27.000Z,21.28
2017-08-01T03:23:27.037Z,21.31
2017-08-01T03:24:27.088Z,21.28
2017-08-01T03:25:27.125Z,21.31
2017-08-01T03:26:27.210Z,21.34
2017-08-01T03:27:27.172Z,21.27
2017-08-01T03:28:27.229Z,21.31
2017-08-01T03:29:27.261Z,21.19
2017-08-01T03:30:27.309Z,21.28
2017-08-01T03:31:27.343Z,21.31
2017-08-01T03:32:27.386Z,21.33
2017-08-01T03:33:27.429Z,21.19
2017-08-01T03:34:27.437Z,21.37
2017-08-01T03:35:27.489Z,21.23
2017-08-01T03:36:27.577Z,21.34
2017-08-01T03:37:27.546Z,21.33
2017-08-01T03:38:27.602Z,21.27
2017-08-01T03:39:27.618Z,21.22
2017-08-01T03:40:27.674Z,21.21
2017-08-01T03:41:27.717Z,21.33
2017-08-01T03:42:27.729Z,21.34
2017-08-01T03:43:27.770Z,21.23
2017-08-01T03:44:27.829Z,21.27
2017-08-01T03:45:27.853Z,21.16
2017-08-01T03:46:27.895Z,21.19
2017-08-01T03:47:27.929Z,21.31
2017-08-01T03:48:28.074Z,21.34
2017-08-01T03:49:28.003Z,21.3
2017-08-01T03:50:28.027Z,21.25
2017-08-01T03:51:28.082Z,21.34
2017-08-01T03:52:28.100Z,21.16
2017-08-01T03:53:28.137Z,21.23
2017-08-01T03:54:28.169Z,21.25
2017-08-01T03:55:28.238Z,21.21
2017-08-01T03:56:28.331Z,21.25
2017-08-01T03:57:28.300Z,21.19
2017-08-01T03:58:28.640Z,21.13
2017-08-01T03:59:28.353Z,21.15
2017-08-01T04:02:27.236Z,21.16
2017-08-01T04:03:27.252Z,21.22
2017-08-01T04:04:27.277Z,21.21
2017-08-01T04:05:27.318Z,21.22
2017-08-01T04:06:27.387Z,21.19
2017-08-01T04:07:27.395Z,21.19
2017-08-01T04:08:27.422Z,21.22
2017-08-01T04:09:27.456Z,21.21
2017-08-01T04:10:27.487Z,21.16
2017-08-01T04:11:27.519Z,21.22
2017-08-01T04:12:27.558Z,21.25
2017-08-01T04:13:27.622Z,21.34
2017-08-01T04:14:27.644Z,21.23
2017-08-01T04:15:27.698Z,21.27
2017-08-01T04:16:27.738Z,21.27
2017-08-01T04:17:27.736Z,21.25
2017-08-01T04:18:27.807Z,21.27
2017-08-01T04:19:27.842Z,21.27
2017-08-01T04:20:27.894Z,21.27
2017-08-01T04:21:27.927Z,21.31
2017-08-01T04:22:27.949Z,21.22
2017-08-01T04:23:27.979Z,21.18
2017-08-01T04:24:28.024Z,21.25
2017-08-01T04:25:28.049Z,21.01
2017-08-01T04:26:28.097Z,21.08
2017-08-01T04:27:28.125Z,20.93
2017-08-01T04:28:28.234Z,20.94
2017-08-01T04:29:28.205Z,20.76
2017-08-01T04:30:28.242Z,20.68
2017-08-01T04:31:28.280Z,20.66
2017-08-01T04:32:28.323Z,20.56
2017-08-01T04:33:28.331Z,20.6
2017-08-01T04:34:28.389Z,20.58
2017-08-01T04:35:28.417Z,20.6
2017-08-01T04:36:28.436Z,20.58
2017-08-01T04:37:28.506Z,20.6
2017-08-01T04:38:28.515Z,20.61
2017-08-01T04:39:28.590Z,20.58
2017-08-01T04:40:28.609Z,20.56
2017-08-01T04:41:28.653Z,20.6
2017-08-01T04:42:28.664Z,20.57
2017-08-01T04:43:28.725Z,20.6
2017-08-01T04:44:28.858Z,20.57
2017-08-01T04:45:28.809Z,20.56
2017-08-01T04:46:28.827Z,20.53
2017-08-01T04:47:29.047Z,20.61
2017-08-01T04:48:28.871Z,20.63
2017-08-01T04:49:29.073Z,20.66
2017-08-01T04:50:28.946Z,20.57
2017-08-01T04:51:28.995Z,20.64
2017-08-01T04:52:29.019Z,20.61
2017-08-01T04:53:29.067Z,20.66
2017-08-01T04:54:29.270Z,20.6
2017-08-01T04:55:29.148Z,20.58
2017-08-01T04:56:29.187Z,20.6
2017-08-01T04:57:29.271Z,20.66
2017-08-01T04:58:29.270Z,20.63
2017-08-01T04:59:29.269Z,20.67
2017-08-01T05:00:29.316Z,20.66
2017-08-01T05:01:29.356Z,20.76
2017-08-01T05:02:29.383Z,20.68
2017-08-01T05:03:29.445Z,20.63
2017-08-01T05:04:29.465Z,20.56
2017-08-01T05:05:29.510Z,20.63
2017-08-01T05:06:29.592Z,20.56
2017-08-01T05:07:29.578Z,20.58
2017-08-01T05:08:29.621Z,20.63
2017-08-01T05:09:29.644Z,20.57
2017-08-01T05:10:29.693Z,20.68
2017-08-01T05:11:29.713Z,20.61
2017-08-01T05:12:29.774Z,20.66
2017-08-01T05:13:29.813Z,20.72
2017-08-01T05:14:29.839Z,20.75
2017-08-01T05:15:29.876Z,20.79
2017-08-01T05:16:29.901Z,20.74
2017-08-01T05:17:29.945Z,20.75
2017-08-01T05:18:29.957Z,20.81
2017-08-01T05:19:29.988Z,20.72
2017-08-01T05:20:30.060Z,20.71
2017-08-01T05:21:30.089Z,20.66
2017-08-01T05:22:30.142Z,20.6
2017-08-01T05:23:30.149Z,20.68
2017-08-01T05:24:30.183Z,20.64
2017-08-01T05:25:30.244Z,20.57
2017-08-01T05:26:30.277Z,20.57
2017-08-01T05:27:30.313Z,20.61
2017-08-01T05:28:30.330Z,20.6
2017-08-01T05:29:30.369Z,20.57
2017-08-01T05:30:30.417Z,20.63
2017-08-01T05:31:30.477Z,20.57
2017-08-01T05:32:30.514Z,20.67
2017-08-01T05:33:30.526Z,20.76
2017-08-01T05:34:30.551Z,20.72
2017-08-01T05:35:30.615Z,20.71
2017-08-01T05:36:30.638Z,20.79
2017-08-01T05:37:30.895Z,20.74
2017-08-01T05:38:30.719Z,20.58
2017-08-01T05:39:30.740Z,20.64
2017-08-01T05:40:30.777Z,20.57
2017-08-01T05:41:30.828Z,20.58
2017-08-01T05:42:30.858Z,20.56
2017-08-01T05:43:30.890Z,20.51
2017-08-01T05:44:30.916Z,20.53
2017-08-01T05:45:30.970Z,20.49
2017-08-01T05:46:30.983Z,20.48
2017-08-01T05:47:31.038Z,20.42
2017-08-01T05:48:31.047Z,20.44
2017-08-01T05:49:31.098Z,20.38
2017-08-01T05:50:31.144Z,20.3
2017-08-01T05:51:31.181Z,20.19
2017-08-01T05:52:31.214Z,20.07
2017-08-01T05:53:31.271Z,19.79
2017-08-01T05:54:31.287Z,19.8
2017-08-01T05:55:31.350Z,19.63
2017-08-01T05:56:31.361Z,19.42
2017-08-01T05:57:31.381Z,19.37
2017-08-01T05:58:31.421Z,19.31
2017-08-01T05:59:31.470Z,19.17
2017-08-01T06:00:31.481Z,19.16
2017-08-01T06:01:31.539Z,19.19
2017-08-01T06:02:31.560Z,19.17
2017-08-01T06:03:31.598Z,19.12
2017-08-01T06:04:31.629Z,19.15
2017-08-01T06:05:31.686Z,19.05
2017-08-01T06:06:31.700Z,19.2
2017-08-01T06:07:31.742Z,19.13
2017-08-01T06:08:31.767Z,19.05
2017-08-01T06:09:31.828Z,19.07
2017-08-01T06:10:31.839Z,19.2
2017-08-01T06:11:31.880Z,19.23
2017-08-01T06:12:31.957Z,19.27
2017-08-01T06:13:31.967Z,19.27
2017-08-01T06:14:31.962Z,19.17
2017-08-01T06:15:32.047Z,19.27
2017-08-01T06:16:32.055Z,19.25
2017-08-01T06:17:32.097Z,19.23
2017-08-01T06:18:32.139Z,19.31
2017-08-01T06:19:32.169Z,19.27
2017-08-01T06:20:32.213Z,19.28
2017-08-01T06:21:32.269Z,19.23
2017-08-01T06:22:32.273Z,19.2
2017-08-01T06:23:32.325Z,19.2
2017-08-01T06:24:32.356Z,19.31
2017-08-01T06:25:32.366Z,19.32
2017-08-01T06:26:32.417Z,19.49
2017-08-01T06:27:32.430Z,19.42
2017-08-01T06:28:32.503Z,19.5
2017-08-01T06:29:32.517Z,19.53
2017-08-01T06:30:32.761Z,19.63
2017-08-01T06:31:32.586Z,19.6
2017-08-01T06:32:32.597Z,19.55
2017-08-01T06:33:32.688Z,19.57
2017-08-01T06:34:32.934Z,19.6
2017-08-01T06:35:32.745Z,19.61
2017-08-01T06:36:32.766Z,19.61
2017-08-01T06:37:32.802Z,19.68
2017-08-01T06:38:32.857Z,19.74
2017-08-01T06:39:32.862Z,19.78
2017-08-01T06:40:32.906Z,19.65
2017-08-01T06:41:32.940Z,19.8
2017-08-01T06:42:32.968Z,19.72
2017-08-01T06:43:32.978Z,19.87
2017-08-01T06:44:33.034Z,19.92
2017-08-01T06:45:33.089Z,20.07
2017-08-01T06:46:33.107Z,20.07
2017-08-01T06:47:33.168Z,20.27
2017-08-01T06:48:33.195Z,20.54
2017-08-01T06:49:33.218Z,21.06
2017-08-01T06:50:33.274Z,21.74
2017-08-01T06:51:33.288Z,22.15
2017-08-01T06:52:33.339Z,22.27
2017-08-01T06:53:33.374Z,22.44
2017-08-01T06:54:33.421Z,22.48
2017-08-01T06:55:33.453Z,22.92
2017-08-01T06:56:33.481Z,23.47
2017-08-01T06:57:33.547Z,24
2017-08-01T06:58:33.577Z,24.4
2017-08-01T06:59:33.595Z,24.77
2017-08-01T07:00:33.627Z,25.22
2017-08-01T07:01:33.675Z,25.66
2017-08-01T07:02:33.712Z,25.82
2017-08-01T07:03:33.714Z,26.09
2017-08-01T07:04:33.787Z,26.24
2017-08-01T07:05:33.816Z,26.49
2017-08-01T07:06:33.862Z,26.64
2017-08-01T07:07:33.912Z,26.49
2017-08-01T07:08:33.929Z,26.74
2017-08-01T07:09:33.968Z,27.09
2017-08-01T07:10:34.047Z,28.02
2017-08-01T07:11:34.041Z,28.86
2017-08-01T07:12:34.094Z,29.3
2017-08-01T07:13:34.133Z,29.43
2017-08-01T07:14:34.163Z,29.82
2017-08-01T07:15:34.219Z,30.35
2017-08-01T07:16:34.255Z,30.64
2017-08-01T07:17:34.301Z,31.06
2017-08-01T07:18:34.334Z,31.44
2017-08-01T07:19:34.375Z,31.63
2017-08-01T07:20:34.434Z,31.81
2017-08-01T07:21:34.483Z,31.95
2017-08-01T07:22:34.604Z,32.01
2017-08-01T07:23:34.521Z,31.74
2017-08-01T07:24:34.587Z,31.59
2017-08-01T07:25:34.677Z,31.55
2017-08-01T07:26:34.669Z,31.22
2017-08-01T07:27:35.187Z,31.03
2017-08-01T07:28:35.383Z,31.01
2017-08-01T07:29:34.986Z,30.78
2017-08-01T07:30:34.860Z,30.85
2017-08-01T07:31:34.865Z,30.85
2017-08-01T07:32:34.894Z,30.75
2017-08-01T07:33:34.973Z,30.6
2017-08-01T07:34:34.992Z,30.31
2017-08-01T07:35:35.038Z,30.19
2017-08-01T07:36:35.069Z,29.81
2017-08-01T07:37:35.360Z,29.3
2017-08-01T07:38:35.142Z,28.82
2017-08-01T07:39:35.808Z,28.17
2017-08-01T07:40:35.241Z,27.99
2017-08-01T07:41:35.957Z,28.17
2017-08-01T07:42:35.344Z,28.3
2017-08-01T07:43:35.371Z,28.36
2017-08-01T07:44:35.406Z,28.38
2017-08-01T07:45:35.745Z,28.46
2017-08-01T07:46:35.488Z,28.97
2017-08-01T07:47:35.532Z,29.88
2017-08-01T07:48:35.579Z,30.35
2017-08-01T07:49:35.600Z,30.22
2017-08-01T07:50:35.631Z,29.7
2017-08-01T07:51:35.707Z,29.08
2017-08-01T07:52:35.736Z,28.55
2017-08-01T07:53:35.781Z,28.05
2017-08-01T07:54:35.920Z,27.52
2017-08-01T07:55:35.861Z,27.04
2017-08-01T07:56:35.899Z,26.75
2017-08-01T07:57:35.943Z,26.5
2017-08-01T07:58:35.985Z,26.45
2017-08-01T07:59:35.991Z,26.57
2017-08-01T08:00:36.057Z,26.72
2017-08-01T08:01:36.089Z,26.68
2017-08-01T08:02:36.157Z,26.63
2017-08-01T08:03:36.162Z,26.49
2017-08-01T08:04:36.211Z,26.45
2017-08-01T08:05:36.260Z,26.34
2017-08-01T08:06:36.294Z,26.34
2017-08-01T08:07:36.305Z,26.74
2017-08-01T08:08:36.383Z,27.76
2017-08-01T08:09:36.398Z,29.5
2017-08-01T08:10:36.472Z,30.73
2017-08-01T08:11:36.486Z,31.62
2017-08-01T08:12:36.541Z,32.37
2017-08-01T08:13:36.612Z,32.93
2017-08-01T08:14:36.622Z,33.05
2017-08-01T08:15:36.665Z,32.91
2017-08-01T08:16:36.674Z,32.61
2017-08-01T08:17:36.762Z,32.71
2017-08-01T08:18:36.797Z,33.37
2017-08-01T08:19:36.843Z,34.43
2017-08-01T08:20:36.857Z,35.5
2017-08-01T08:21:36.901Z,36.41
2017-08-01T08:22:36.996Z,37.19
2017-08-01T08:23:36.960Z,37.68
2017-08-01T08:24:37.067Z,37.88
2017-08-01T08:25:37.092Z,37.98
2017-08-01T08:26:37.156Z,37.72
2017-08-01T08:27:37.176Z,37.22
2017-08-01T08:28:37.206Z,37.11
2017-08-01T08:29:37.270Z,36.88
2017-08-01T08:30:37.312Z,37.54
2017-08-01T08:31:37.392Z,38.08
2017-08-01T08:32:37.426Z,38.09
2017-08-01T08:33:37.453Z,38.08
2017-08-01T08:34:37.522Z,37.88
2017-08-01T08:35:37.512Z,37.49
2017-08-01T08:36:37.550Z,36.46
2017-08-01T08:37:37.657Z,35.04
2017-08-01T08:38:37.642Z,33.73
2017-08-01T08:39:37.687Z,33.08
2017-08-01T08:40:37.763Z,32.8
2017-08-01T08:41:37.810Z,32.79
2017-08-01T08:42:37.839Z,33.02
2017-08-01T08:43:37.875Z,33.95
2017-08-01T08:44:37.931Z,34.71
2017-08-01T08:45:37.955Z,34.61
2017-08-01T08:46:38.046Z,34.45
2017-08-01T08:47:38.238Z,33.97
2017-08-01T08:48:38.128Z,33.65
2017-08-01T08:49:38.144Z,32.93
2017-08-01T08:50:38.182Z,32.24
2017-08-01T08:51:38.236Z,31.93
2017-08-01T08:52:38.294Z,31.59
2017-08-01T08:53:38.299Z,31.56
2017-08-01T08:54:38.382Z,31.52
2017-08-01T08:55:38.397Z,31.37
2017-08-01T08:56:38.446Z,31.38
2017-08-01T08:57:38.504Z,31.4
2017-08-01T08:58:38.523Z,31.67
2017-08-01T08:59:38.605Z,31.82
2017-08-01T09:00:38.640Z,32.08
2017-08-01T09:01:38.666Z,32.52
2017-08-01T09:02:38.724Z,32.93
2017-08-01T09:03:38.762Z,33.23
2017-08-01T09:04:38.813Z,33.11
2017-08-01T09:05:38.855Z,32.94
2017-08-01T09:06:38.931Z,33.48
2017-08-01T09:07:38.917Z,34.54
2017-08-01T09:08:38.984Z,35.61
2017-08-01T09:09:39.029Z,36.39
2017-08-01T09:10:39.091Z,37.18
2017-08-01T09:11:39.100Z,37.65
2017-08-01T09:12:39.171Z,38.43
2017-08-01T09:13:39.200Z,38.96
2017-08-01T09:14:39.221Z,39.47
2017-08-01T09:15:39.298Z,40.05
2017-08-01T09:16:39.324Z,40.72
2017-08-01T09:17:39.390Z,41.57
2017-08-01T09:18:39.397Z,41.49
2017-08-01T09:19:39.480Z,41.3
2017-08-01T09:20:39.513Z,40.91
2017-08-01T09:21:39.583Z,40.7
2017-08-01T09:22:39.609Z,40.69
2017-08-01T09:23:39.641Z,40.28
2017-08-01T09:24:39.724Z,40.2
2017-08-01T09:25:39.731Z,40.3
2017-08-01T09:26:39.830Z,40.72
2017-08-01T09:27:39.840Z,41.2
2017-08-01T09:28:39.887Z,41.73
2017-08-01T09:29:39.928Z,42.17
2017-08-01T09:30:40.161Z,42.42
2017-08-01T09:31:40.053Z,42.48
2017-08-01T09:32:40.103Z,42.18
2017-08-01T09:33:40.133Z,42.28
2017-08-01T09:34:40.202Z,42.25
2017-08-01T09:35:40.394Z,42.25
2017-08-01T09:36:40.286Z,42.42
2017-08-01T09:37:40.326Z,42.1
2017-08-01T09:38:40.396Z,41.92
2017-08-01T09:39:40.426Z,41.85
2017-08-01T09:40:40.539Z,41.78
2017-08-01T09:41:40.534Z,41.71
2017-08-01T09:42:40.568Z,41.82
2017-08-01T09:43:40.628Z,42.03
2017-08-01T09:44:40.684Z,42.49
2017-08-01T09:45:40.743Z,42.95
2017-08-01T09:46:40.749Z,43.1
2017-08-01T09:47:40.822Z,43.3
2017-08-01T09:48:40.871Z,43.8
2017-08-01T09:49:40.939Z,43.92
2017-08-01T09:50:41.004Z,43.88
2017-08-01T09:51:41.046Z,43.77
2017-08-01T09:52:41.081Z,43.88
2017-08-01T09:53:41.146Z,43.97
2017-08-01T09:54:41.186Z,44.14
2017-08-01T09:55:41.227Z,44.29
2017-08-01T09:56:41.498Z,44.52
2017-08-01T09:57:41.330Z,43.93
2017-08-01T09:58:41.389Z,42.95
2017-08-01T09:59:41.434Z,42.32
2017-08-01T10:00:41.516Z,41.8
2017-08-01T10:01:41.554Z,41.38
2017-08-01T10:02:41.600Z,41.18
2017-08-01T10:03:41.637Z,41.52
2017-08-01T10:04:41.681Z,41.85
2017-08-01T10:05:41.730Z,41.94
2017-08-01T10:06:41.772Z,42.32
2017-08-01T10:07:41.815Z,42.83
2017-08-01T10:08:41.955Z,43.4
2017-08-01T10:09:41.934Z,43.96
2017-08-01T10:10:42.002Z,43.8
2017-08-01T10:11:42.046Z,43.69
2017-08-01T10:12:42.134Z,43.69
2017-08-01T10:13:42.145Z,43.16
2017-08-01T10:14:42.184Z,42.94
2017-08-01T10:15:42.504Z,42.92
2017-08-01T10:16:42.318Z,42.92
2017-08-01T10:17:42.334Z,43.15
2017-08-01T10:18:42.397Z,43.52
2017-08-01T10:19:42.439Z,43.4
2017-08-01T10:20:42.582Z,43.44
2017-08-01T10:21:42.534Z,43.16
2017-08-01T10:22:42.573Z,43.32
2017-08-01T10:23:42.645Z,43.32
2017-08-01T10:24:42.660Z,43.15
2017-08-01T10:25:42.725Z,43.2
2017-08-01T10:26:43.227Z,43.35
2017-08-01T10:27:42.824Z,43.37
2017-08-01T10:28:42.871Z,43.49
2017-08-01T10:29:42.923Z,43.66
2017-08-01T10:30:42.932Z,43.66
2017-08-01T10:31:43.055Z,43.7
2017-08-01T10:32:43.264Z,43.55
2017-08-01T10:33:43.139Z,43.69
2017-08-01T10:34:43.148Z,43.69
2017-08-01T10:35:43.405Z,43.71
2017-08-01T10:36:43.241Z,43.88
2017-08-01T10:37:43.307Z,44.03
2017-08-01T10:38:43.334Z,44.19
2017-08-01T10:39:43.358Z,44.45
2017-08-01T10:40:43.428Z,44.56
2017-08-01T10:41:43.506Z,44.68
2017-08-01T10:42:43.540Z,44.72
2017-08-01T10:43:43.606Z,44.78
2017-08-01T10:44:43.640Z,44.75
2017-08-01T10:45:43.655Z,44.68
2017-08-01T10:46:43.708Z,44.66
2017-08-01T10:47:43.740Z,44.42
2017-08-01T10:48:43.804Z,44.24
2017-08-01T10:49:43.844Z,43.42
2017-08-01T10:50:43.924Z,42.97
2017-08-01T10:51:43.983Z,42.71
2017-08-01T10:52:43.990Z,42.74
2017-08-01T10:53:44.022Z,42.82
2017-08-01T10:54:44.066Z,42.88
2017-08-01T10:55:44.073Z,43.11
2017-08-01T10:56:44.151Z,43.19
2017-08-01T10:57:44.189Z,43.43
2017-08-01T10:58:44.302Z,43.64
2017-08-01T10:59:44.280Z,43.55
2017-08-01T11:00:44.323Z,43.24
2017-08-01T11:01:44.386Z,43.15
2017-08-01T11:02:44.828Z,43.28
2017-08-01T11:03:44.483Z,43.55
2017-08-01T11:04:44.732Z,43.81
2017-08-01T11:05:44.577Z,43.97
2017-08-01T11:06:44.835Z,43.99
2017-08-01T11:07:44.624Z,43.88
2017-08-01T11:08:44.900Z,43.84
2017-08-01T11:09:44.712Z,43.69
2017-08-01T11:10:44.755Z,43.64
2017-08-01T11:11:45.065Z,43.88
2017-08-01T11:12:44.835Z,43.65
2017-08-01T11:13:44.887Z,43.55
2017-08-01T11:14:44.926Z,43.52
2017-08-01T11:15:45.213Z,43.61
2017-08-01T11:16:44.995Z,43.74
2017-08-01T11:17:45.064Z,43.85
2017-08-01T11:18:45.089Z,44.07
2017-08-01T11:19:45.135Z,44.42
2017-08-01T11:20:45.165Z,44.14
2017-08-01T11:21:45.229Z,43.7
2017-08-01T11:22:45.297Z,43.36
2017-08-01T11:23:45.316Z,43.04
2017-08-01T11:24:45.370Z,43.08
2017-08-01T11:25:45.424Z,43.32
2017-08-01T11:26:45.416Z,43.74
2017-08-01T11:27:45.466Z,43.93
2017-08-01T11:28:45.513Z,43.25
2017-08-01T11:29:45.557Z,43.02
2017-08-01T11:30:45.618Z,42.79
2017-08-01T11:31:45.647Z,42.6
2017-08-01T11:32:45.672Z,42.57
2017-08-01T11:33:45.715Z,42.6
2017-08-01T11:34:45.780Z,42.74
2017-08-01T11:35:45.784Z,42.89
2017-08-01T11:36:45.857Z,42.74
2017-08-01T11:37:45.873Z,42.55
2017-08-01T11:38:45.930Z,42.51
2017-08-01T11:39:45.979Z,42.4
2017-08-01T11:40:46.011Z,42.2
2017-08-01T11:41:46.074Z,41.59
2017-08-01T11:42:46.095Z,40.54
2017-08-01T11:43:46.133Z,39.41
2017-08-01T11:44:46.192Z,38.21
2017-08-01T11:45:46.262Z,37.14
2017-08-01T11:46:46.244Z,36.05
2017-08-01T11:47:46.301Z,35.18
2017-08-01T11:48:46.449Z,34.46
2017-08-01T11:49:46.372Z,33.97
2017-08-01T11:50:46.453Z,33.61
2017-08-01T11:51:46.466Z,33.02
2017-08-01T11:52:46.491Z,32.61
2017-08-01T11:53:46.544Z,32.23
2017-08-01T11:54:46.579Z,31.86
2017-08-01T11:55:46.874Z,31.65
2017-08-01T11:56:46.673Z,31.56
2017-08-01T11:57:46.713Z,31.45
2017-08-01T11:58:46.773Z,31.34
2017-08-01T11:59:46.796Z,31.37
2017-08-01T12:00:46.844Z,31.31
2017-08-01T12:01:46.893Z,31.34
2017-08-01T12:02:46.919Z,31.34
2017-08-01T12:03:47.424Z,31.33
2017-08-01T12:04:46.974Z,31.22
2017-08-01T12:05:47.062Z,31.28
2017-08-01T12:06:47.083Z,31.18
2017-08-01T12:07:47.304Z,31.06
2017-08-01T12:08:47.164Z,31
2017-08-01T12:09:47.208Z,30.85
2017-08-01T12:10:47.269Z,30.73
2017-08-01T12:11:47.292Z,30.63
2017-08-01T12:12:47.304Z,30.62
2017-08-01T12:13:47.382Z,30.54
2017-08-01T12:14:47.432Z,30.42
2017-08-01T12:15:47.434Z,30.34
2017-08-01T12:16:47.494Z,30.26
2017-08-01T12:17:47.550Z,30.07
2017-08-01T12:18:47.604Z,29.98
2017-08-01T12:19:47.655Z,29.82
2017-08-01T12:20:47.653Z,29.81
2017-08-01T12:21:47.708Z,29.72
2017-08-01T12:22:47.737Z,29.66
2017-08-01T12:23:47.801Z,29.72
2017-08-01T12:24:47.812Z,29.76
2017-08-01T12:25:47.892Z,29.79
2017-08-01T12:26:47.911Z,29.81
2017-08-01T12:27:47.947Z,29.87
2017-08-01T12:28:48.022Z,29.87
2017-08-01T12:29:48.026Z,29.94
2017-08-01T12:30:48.064Z,30
2017-08-01T12:31:48.123Z,29.92
2017-08-01T12:32:48.145Z,30
2017-08-01T12:33:48.212Z,30
2017-08-01T12:34:48.233Z,30.13
2017-08-01T12:35:48.282Z,30.06
2017-08-01T12:36:48.291Z,30.13
2017-08-01T12:37:48.364Z,30.06
2017-08-01T12:38:48.619Z,29.88
2017-08-01T12:39:48.411Z,29.95
2017-08-01T12:40:48.466Z,29.97
2017-08-01T12:41:48.502Z,30
2017-08-01T12:42:48.565Z,30.28
2017-08-01T12:43:48.601Z,30.25
2017-08-01T12:44:49.260Z,30.47
2017-08-01T12:45:48.693Z,30.63
2017-08-01T12:46:48.732Z,30.69
2017-08-01T12:47:48.734Z,30.78
2017-08-01T12:48:48.802Z,30.91
2017-08-01T12:49:48.841Z,30.97
2017-08-01T12:50:48.879Z,31.06
2017-08-01T12:51:48.942Z,31.06
2017-08-01T12:52:48.960Z,31.22
2017-08-01T12:53:49.041Z,31.34
2017-08-01T12:54:49.050Z,31.43
2017-08-01T12:55:49.089Z,31.58
2017-08-01T12:56:49.089Z,31.77
2017-08-01T12:57:49.154Z,31.88